This is the latest recevied weather packets stored in our database for station/object K6FAK-13. If no packets are shown the sender has not sent any weather packets the latest 1 day(s).
| Time | Temp. | Humidity | Pressure | Rain* | Wind** | Luminosity | Snow |
|---|---|---|---|---|---|---|---|
| 1778011079 | 17.22° C | 82% | 1018.2 hPa | 0 mm | 0.45 m/s, 155° | 680 W/m² | - |
| 1778010777 | 16.67° C | 83% | 1018.3 hPa | 0 mm | 0.45 m/s, 107° | 467 W/m² | - |
| 1778010474 | 17.22° C | 83% | 1018.4 hPa | 0 mm | 0.45 m/s, 4° | 381 W/m² | - |
| 1778010171 | 16.67° C | 84% | 1018.5 hPa | 0 mm | 0 m/s | 447 W/m² | - |
| 1778009866 | 16.67° C | 84% | 1018.4 hPa | 0 mm | 0 m/s | 327 W/m² | - |
| 1778009564 | 16.67° C | 84% | 1018.5 hPa | 0 mm | 0 m/s | 251 W/m² | - |
| 1778009262 | 16.67° C | 86% | 1018.6 hPa | 0 mm | 0 m/s | 255 W/m² | - |
| 1778008959 | 16.11° C | 86% | 1018.3 hPa | 0 mm | 0 m/s | 255 W/m² | - |
| 1778008657 | 15.56° C | 87% | 1018.3 hPa | 0 mm | 0 m/s | 225 W/m² | - |
| 1778008356 | 15.56° C | 88% | 1018.4 hPa | 0 mm | 0.89 m/s, 31° | 150 W/m² | - |
| 1778008052 | 15.56° C | 89% | 1018.6 hPa | 0 mm | 0 m/s | 94 W/m² | - |
| 1778007752 | 15.56° C | 89% | 1018.4 hPa | 0 mm | 0.45 m/s, 198° | 92 W/m² | - |
| 1778007448 | 15.56° C | 87% | 1018.5 hPa | 0 mm | 2.68 m/s, 19° | 88 W/m² | - |
| 1778007145 | 15.56° C | 87% | 1018.2 hPa | 0 mm | 0.45 m/s, 28° | 163 W/m² | - |
| 1778006841 | 15.56° C | 87% | 1018.3 hPa | 0 mm | 0.45 m/s, 21° | 149 W/m² | - |
| 1778006538 | 16.11° C | 86% | 1018.2 hPa | 0 mm | 0 m/s | 171 W/m² | - |
| 1778006235 | 16.11° C | 86% | 1018.1 hPa | 0 mm | 0 m/s | 368 W/m² | - |
| 1778005933 | 15.56° C | 86% | 1018.2 hPa | 0 mm | 1.34 m/s, 302° | 278 W/m² | - |
| 1778005628 | 15.56° C | 87% | 1018.2 hPa | 0 mm | 0.45 m/s, 213° | 324 W/m² | - |
| 1778005326 | 15.56° C | 88% | 1018.2 hPa | 0 mm | 0.89 m/s, 44° | 556 W/m² | - |
| 1778005022 | 15° C | 88% | 1018.1 hPa | 0 mm | 1.34 m/s, 276° | 521 W/m² | - |
| 1778004720 | 15° C | 88% | 1018.2 hPa | 0 mm | 1.34 m/s, 79° | 249 W/m² | - |
| 1778004415 | 15° C | 89% | 1018.1 hPa | 0 mm | 1.34 m/s, 341° | 303 W/m² | - |
| 1778004113 | 15.56° C | 88% | 1018.1 hPa | 0 mm | 1.79 m/s, 315° | 399 W/m² | - |
| 1778003809 | 15.56° C | 89% | 1018.3 hPa | 0 mm | 2.24 m/s, 338° | 355 W/m² | - |
* Rain latest hour (hover to see other rain measurements)
** Current wind speed in m/s (hover to see current wind gust speed)